sensor_id;sensor_type;location;lat;lon;timestamp;pressure;altitude;pressure_sealevel;temperature;humidity
29733;BME280;16643;43.158;25.302;2023-05-16T00:03:42;97536.53;;;16.78;97.11
29733;BME280;16643;43.158;25.302;2023-05-16T00:06:08;97506.75;;;16.50;97.72
29733;BME280;16643;43.158;25.302;2023-05-16T00:08:34;97493.44;;;16.53;98.75
29733;BME280;16643;43.158;25.302;2023-05-16T00:11:00;97485.31;;;16.44;98.38
29733;BME280;16643;43.158;25.302;2023-05-16T00:13:26;97461.63;;;16.45;97.20
29733;BME280;16643;43.158;25.302;2023-05-16T00:15:52;97484.72;;;16.53;96.68
29733;BME280;16643;43.158;25.302;2023-05-16T00:18:20;97487.34;;;16.53;96.22
29733;BME280;16643;43.158;25.302;2023-05-16T00:20:47;97487.34;;;-142.82;95.03
29733;BME280;16643;43.158;25.302;2023-05-16T00:23:14;97485.34;;;16.70;94.57
29733;BME280;16643;43.158;25.302;2023-05-16T00:25:39;97544.91;;;16.83;94.57
29733;BME280;16643;43.158;25.302;2023-05-16T00:28:06;97536.72;;;17.01;96.02
29733;BME280;16643;43.158;25.302;2023-05-16T00:30:33;88490.69;;;-142.82;96.02
29733;BME280;16643;43.158;25.302;2023-05-16T00:32:59;97541.69;;;16.79;97.21
29733;BME280;16643;43.158;25.302;2023-05-16T00:35:25;97518.34;;;16.60;97.03
29733;BME280;16643;43.158;25.302;2023-05-16T00:37:51;97487.53;;;16.64;97.24
29733;BME280;16643;43.158;25.302;2023-05-16T00:40:17;97525.81;;;16.81;97.09
29733;BME280;16643;43.158;25.302;2023-05-16T00:42:43;97500.56;;;16.65;97.82
29733;BME280;16643;43.158;25.302;2023-05-16T00:45:09;97528.31;;;16.82;97.08
29733;BME280;16643;43.158;25.302;2023-05-16T00:47:35;97534.03;;;16.89;97.55
29733;BME280;16643;43.158;25.302;2023-05-16T00:50:01;73597.25;;;-142.82;97.55
29733;BME280;16643;43.158;25.302;2023-05-16T00:52:28;97520.41;;;16.96;97.18
29733;BME280;16643;43.158;25.302;2023-05-16T00:54:55;97501.13;;;16.83;96.97
29733;BME280;16643;43.158;25.302;2023-05-16T00:57:21;97523.44;;;16.90;96.47
29733;BME280;16643;43.158;25.302;2023-05-16T00:59:48;97457.03;;;16.61;96.19
29733;BME280;16643;43.158;25.302;2023-05-16T01:02:14;97506.00;;;16.89;96.33
29733;BME280;16643;43.158;25.302;2023-05-16T01:04:40;97502.53;;;16.89;95.72
29733;BME280;16643;43.158;25.302;2023-05-16T01:07:06;97488.84;;;16.84;96.78
29733;BME280;16643;43.158;25.302;2023-05-16T01:09:31;97488.84;;;-142.82;96.67
29733;BME280;16643;43.158;25.302;2023-05-16T01:12:22;97541.78;;;17.17;97.15
29733;BME280;16643;43.158;25.302;2023-05-16T01:14:56;97547.13;;;17.16;96.56
29733;BME280;16643;43.158;25.302;2023-05-16T01:20:02;97558.00;;;17.24;97.35
29733;BME280;16643;43.158;25.302;2023-05-16T01:22:46;88476.41;;;-142.82;97.35
29733;BME280;16643;43.158;25.302;2023-05-16T01:28:01;97527.91;;;16.76;98.05
29733;BME280;16643;43.158;25.302;2023-05-16T01:30:33;97509.41;;;16.77;97.74
29733;BME280;16643;43.158;25.302;2023-05-16T01:33:02;97492.41;;;16.56;97.76
29733;BME280;16643;43.158;25.302;2023-05-16T01:35:28;97552.78;;;16.83;97.67
29733;BME280;16643;43.158;25.302;2023-05-16T01:38:15;97546.50;;;16.85;98.94
29733;BME280;16643;43.158;25.302;2023-05-16T01:40:58;97541.78;;;16.78;98.78
29733;BME280;16643;43.158;25.302;2023-05-16T01:43:32;97531.03;;;16.68;99.09
29733;BME280;16643;43.158;25.302;2023-05-16T01:46:03;97553.53;;;16.85;99.27
29733;BME280;16643;43.158;25.302;2023-05-16T01:48:36;97532.19;;;16.77;98.87
29733;BME280;16643;43.158;25.302;2023-05-16T01:51:03;73611.13;;;-142.82;98.87
29733;BME280;16643;43.158;25.302;2023-05-16T01:53:36;97535.50;;;16.80;98.33
29733;BME280;16643;43.158;25.302;2023-05-16T01:56:03;97478.63;;;16.52;97.97
29733;BME280;16643;43.158;25.302;2023-05-16T01:58:36;97542.72;;;16.77;97.84
29733;BME280;16643;43.158;25.302;2023-05-16T02:01:03;97510.31;;;16.63;98.19
29733;BME280;16643;43.158;25.302;2023-05-16T02:03:30;97501.97;;;16.57;98.72
29733;BME280;16643;43.158;25.302;2023-05-16T02:05:56;97499.19;;;16.46;98.17
29733;BME280;16643;43.158;25.302;2023-05-16T02:08:27;97508.75;;;16.47;98.44
29733;BME280;16643;43.158;25.302;2023-05-16T02:10:53;97467.06;;;16.28;98.15
29733;BME280;16643;43.158;25.302;2023-05-16T02:13:18;97546.88;;;16.66;98.65
29733;BME280;16643;43.158;25.302;2023-05-16T02:15:44;97530.63;;;16.60;99.13
29733;BME280;16643;43.158;25.302;2023-05-16T02:18:10;73630.94;;;-142.82;99.13
29733;BME280;16643;43.158;25.302;2023-05-16T02:20:36;97475.03;;;16.26;98.94
29733;BME280;16643;43.158;25.302;2023-05-16T02:23:08;73630.94;;;-142.82;98.94
29733;BME280;16643;43.158;25.302;2023-05-16T02:25:34;97522.41;;;16.52;100.00
29733;BME280;16643;43.158;25.302;2023-05-16T02:28:00;97522.41;;;16.52;100.00
29733;BME280;16643;43.158;25.302;2023-05-16T02:30:25;97493.13;;;16.17;100.00
29733;BME280;16643;43.158;25.302;2023-05-16T02:32:51;97465.63;;;16.10;100.00
29733;BME280;16643;43.158;25.302;2023-05-16T02:35:17;97460.72;;;16.18;100.00
29733;BME280;16643;43.158;25.302;2023-05-16T02:37:43;97484.59;;;16.27;100.00
29733;BME280;16643;43.158;25.302;2023-05-16T02:40:09;97533.91;;;16.49;100.00
29733;BME280;16643;43.158;25.302;2023-05-16T02:42:35;97517.25;;;16.50;100.00
29733;BME280;16643;43.158;25.302;2023-05-16T02:45:01;97456.91;;;16.09;100.00
29733;BME280;16643;43.158;25.302;2023-05-16T02:47:26;97465.88;;;16.19;100.00
29733;BME280;16643;43.158;25.302;2023-05-16T02:49:52;73632.94;;;-142.82;100.00
29733;BME280;16643;43.158;25.302;2023-05-16T02:52:18;97555.13;;;129.69;99.75
29733;BME280;16643;43.158;25.302;2023-05-16T02:54:44;97522.25;;;16.26;99.88
29733;BME280;16643;43.158;25.302;2023-05-16T02:57:09;97517.16;;;16.38;100.00
29733;BME280;16643;43.158;25.302;2023-05-16T02:59:36;97483.72;;;16.00;99.80
29733;BME280;16643;43.158;25.302;2023-05-16T03:02:02;97462.66;;;16.02;100.00
29733;BME280;16643;43.158;25.302;2023-05-16T03:04:28;97442.97;;;15.94;100.00
29733;BME280;16643;43.158;25.302;2023-05-16T03:06:53;97457.00;;;16.08;100.00
29733;BME280;16643;43.158;25.302;2023-05-16T03:09:19;97503.97;;;16.39;100.00
29733;BME280;16643;43.158;25.302;2023-05-16T03:11:46;97488.28;;;16.25;100.00
29733;BME280;16643;43.158;25.302;2023-05-16T03:14:12;97457.59;;;16.13;100.00
29733;BME280;16643;43.158;25.302;2023-05-16T03:16:38;97496.03;;;16.26;100.00
29733;BME280;16643;43.158;25.302;2023-05-16T03:19:09;97488.91;;;16.14;100.00
29733;BME280;16643;43.158;25.302;2023-05-16T03:21:35;97468.94;;;15.99;100.00
29733;BME280;16643;43.158;25.302;2023-05-16T03:24:04;97489.41;;;16.07;100.00
29733;BME280;16643;43.158;25.302;2023-05-16T03:26:30;97474.25;;;15.97;100.00
29733;BME280;16643;43.158;25.302;2023-05-16T03:28:55;97490.16;;;16.23;100.00
29733;BME280;16643;43.158;25.302;2023-05-16T03:31:22;97470.03;;;16.09;100.00
29733;BME280;16643;43.158;25.302;2023-05-16T03:33:48;97455.97;;;16.10;100.00
29733;BME280;16643;43.158;25.302;2023-05-16T03:36:13;97524.75;;;16.42;100.00
29733;BME280;16643;43.158;25.302;2023-05-16T03:38:39;97504.47;;;16.31;100.00
29733;BME280;16643;43.158;25.302;2023-05-16T03:41:05;97485.69;;;16.38;100.00
29733;BME280;16643;43.158;25.302;2023-05-16T03:43:30;97509.28;;;16.52;100.00
29733;BME280;16643;43.158;25.302;2023-05-16T03:45:56;97472.53;;;16.25;100.00
29733;BME280;16643;43.158;25.302;2023-05-16T03:48:22;97498.53;;;16.42;100.00
29733;BME280;16643;43.158;25.302;2023-05-16T03:50:47;97490.00;;;16.39;100.00
29733;BME280;16643;43.158;25.302;2023-05-16T03:53:13;97519.97;;;16.63;100.00
29733;BME280;16643;43.158;25.302;2023-05-16T03:55:39;97463.16;;;16.35;100.00
29733;BME280;16643;43.158;25.302;2023-05-16T03:58:04;97533.16;;;16.76;100.00
29733;BME280;16643;43.158;25.302;2023-05-16T04:00:30;97494.56;;;16.49;100.00
29733;BME280;16643;43.158;25.302;2023-05-16T04:02:56;97462.00;;;16.39;100.00
29733;BME280;16643;43.158;25.302;2023-05-16T04:05:21;97481.25;;;16.52;100.00
29733;BME280;16643;43.158;25.302;2023-05-16T04:07:47;97499.56;;;16.81;100.00
29733;BME280;16643;43.158;25.302;2023-05-16T04:10:13;97502.19;;;16.81;100.00
29733;BME280;16643;43.158;25.302;2023-05-16T04:12:39;97516.78;;;16.85;100.00
29733;BME280;16643;43.158;25.302;2023-05-16T04:15:05;97549.78;;;16.89;100.00
29733;BME280;16643;43.158;25.302;2023-05-16T04:20:34;97538.78;;;16.96;100.00
29733;BME280;16643;43.158;25.302;2023-05-16T04:23:01;97562.78;;;17.17;100.00
29733;BME280;16643;43.158;25.302;2023-05-16T04:25:26;97464.25;;;16.72;100.00
29733;BME280;16643;43.158;25.302;2023-05-16T04:27:55;97526.13;;;17.16;100.00
29733;BME280;16643;43.158;25.302;2023-05-16T04:30:21;97515.41;;;17.19;100.00
29733;BME280;16643;43.158;25.302;2023-05-16T04:33:02;97467.41;;;17.04;100.00
29733;BME280;16643;43.158;25.302;2023-05-16T04:54:24;97546.94;;;18.09;97.81
29733;BME280;16643;43.158;25.302;2023-05-16T04:56:50;97524.44;;;18.05;97.76
29733;BME280;16643;43.158;25.302;2023-05-16T05:02:43;97509.41;;;17.94;99.36
29733;BME280;16643;43.158;25.302;2023-05-16T05:05:09;97486.06;;;17.77;98.10
29733;BME280;16643;43.158;25.302;2023-05-16T05:20:26;97566.69;;;18.40;96.22
29733;BME280;16643;43.158;25.302;2023-05-16T05:22:54;97549.72;;;18.57;95.88
29733;BME280;16643;43.158;25.302;2023-05-16T05:27:54;97552.13;;;18.72;91.91
29733;BME280;16643;43.158;25.302;2023-05-16T05:30:20;97487.19;;;18.47;90.24
29733;BME280;16643;43.158;25.302;2023-05-16T05:32:46;97510.84;;;18.73;89.77
29733;BME280;16643;43.158;25.302;2023-05-16T05:35:11;97560.16;;;18.95;94.12
29733;BME280;16643;43.158;25.302;2023-05-16T05:37:37;97521.47;;;18.71;95.14
29733;BME280;16643;43.158;25.302;2023-05-16T05:40:03;97525.91;;;18.71;95.44
29733;BME280;16643;43.158;25.302;2023-05-16T05:42:28;97531.13;;;18.83;95.76
29733;BME280;16643;43.158;25.302;2023-05-16T05:44:54;97530.44;;;18.69;95.46
29733;BME280;16643;43.158;25.302;2023-05-16T05:47:20;97541.09;;;18.91;95.08
29733;BME280;16643;43.158;25.302;2023-05-16T05:49:46;97475.38;;;18.53;94.45
29733;BME280;16643;43.158;25.302;2023-05-16T05:52:15;97545.94;;;19.08;96.09
29733;BME280;16643;43.158;25.302;2023-05-16T05:54:40;97493.03;;;18.88;95.58
29733;BME280;16643;43.158;25.302;2023-05-16T05:57:06;97548.91;;;19.28;94.90
29733;BME280;16643;43.158;25.302;2023-05-16T05:59:35;97569.31;;;19.37;94.71
29733;BME280;16643;43.158;25.302;2023-05-16T06:02:09;97496.88;;;19.07;92.62
29733;BME280;16643;43.158;25.302;2023-05-16T06:04:34;97504.34;;;19.25;93.42
29733;BME280;16643;43.158;25.302;2023-05-16T06:12:57;97511.78;;;19.31;95.09
29733;BME280;16643;43.158;25.302;2023-05-16T06:18:41;97480.28;;;18.94;96.49
29733;BME280;16643;43.158;25.302;2023-05-16T06:21:06;97546.97;;;19.18;96.42
29733;BME280;16643;43.158;25.302;2023-05-16T06:37:52;97582.28;;;19.40;96.58
29733;BME280;16643;43.158;25.302;2023-05-16T06:51:50;97588.94;;;19.56;96.93
29733;BME280;16643;43.158;25.302;2023-05-16T06:54:16;97510.53;;;19.12;97.93
29733;BME280;16643;43.158;25.302;2023-05-16T06:56:42;97504.41;;;19.12;97.29
29733;BME280;16643;43.158;25.302;2023-05-16T06:59:07;97567.75;;;19.58;97.17
29733;BME280;16643;43.158;25.302;2023-05-16T07:01:33;97576.16;;;19.63;97.38
29733;BME280;16643;43.158;25.302;2023-05-16T07:03:59;97565.22;;;19.56;96.58
29733;BME280;16643;43.158;25.302;2023-05-16T07:21:36;97531.72;;;19.46;95.34
29733;BME280;16643;43.158;25.302;2023-05-16T07:24:01;73274.28;;;-142.82;95.34
29733;BME280;16643;43.158;25.302;2023-05-16T07:26:27;97590.69;;;19.80;92.90
29733;BME280;16643;43.158;25.302;2023-05-16T07:28:53;97563.47;;;19.44;93.47
29733;BME280;16643;43.158;25.302;2023-05-16T07:31:19;97563.47;;;19.44;93.47
29733;BME280;16643;43.158;25.302;2023-05-16T07:33:44;97576.28;;;19.62;93.00
29733;BME280;16643;43.158;25.302;2023-05-16T07:45:13;97520.75;;;19.52;91.32
29733;BME280;16643;43.158;25.302;2023-05-16T07:47:38;97515.53;;;19.39;91.34
29733;BME280;16643;43.158;25.302;2023-05-16T07:53:48;97594.06;;;19.82;92.44
29733;BME280;16643;43.158;25.302;2023-05-16T07:56:14;97574.97;;;19.67;90.58
29733;BME280;16643;43.158;25.302;2023-05-16T07:58:43;97557.47;;;19.77;90.14
29733;BME280;16643;43.158;25.302;2023-05-16T08:01:44;97581.50;;;19.97;89.97
29733;BME280;16643;43.158;25.302;2023-05-16T08:04:20;97525.22;;;19.63;91.80
29733;BME280;16643;43.158;25.302;2023-05-16T08:06:46;97551.25;;;19.89;90.16
29733;BME280;16643;43.158;25.302;2023-05-16T08:09:11;97589.06;;;20.12;89.15
29733;BME280;16643;43.158;25.302;2023-05-16T08:11:37;97525.81;;;19.77;89.91
29733;BME280;16643;43.158;25.302;2023-05-16T08:14:04;97542.22;;;19.58;90.70
29733;BME280;16643;43.158;25.302;2023-05-16T08:16:32;97571.25;;;19.70;91.56
29733;BME280;16643;43.158;25.302;2023-05-16T08:18:58;97632.97;;;20.02;91.61
29733;BME280;16643;43.158;25.302;2023-05-16T08:21:24;97629.03;;;20.08;90.92
29733;BME280;16643;43.158;25.302;2023-05-16T08:23:49;97578.59;;;19.88;90.78
29733;BME280;16643;43.158;25.302;2023-05-16T08:30:08;97603.13;;;20.13;91.87
29733;BME280;16643;43.158;25.302;2023-05-16T08:33:04;97562.66;;;19.90;91.96
29733;BME280;16643;43.158;25.302;2023-05-16T08:35:42;97540.91;;;19.75;93.48
29733;BME280;16643;43.158;25.302;2023-05-16T08:59:16;97544.69;;;19.95;95.35
29733;BME280;16643;43.158;25.302;2023-05-16T09:01:43;97566.03;;;20.14;96.15
29733;BME280;16643;43.158;25.302;2023-05-16T09:04:09;97591.59;;;20.25;96.05
29733;BME280;16643;43.158;25.302;2023-05-16T09:06:35;97528.38;;;20.01;94.40
29733;BME280;16643;43.158;25.302;2023-05-16T09:12:41;97495.72;;;19.80;94.90
29733;BME280;16643;43.158;25.302;2023-05-16T09:18:57;97526.56;;;20.24;95.78
29733;BME280;16643;43.158;25.302;2023-05-16T09:23:55;97546.59;;;20.71;93.86
29733;BME280;16643;43.158;25.302;2023-05-16T10:09:55;97480.81;;;21.32;87.36
29733;BME280;16643;43.158;25.302;2023-05-16T10:19:31;97562.94;;;21.93;84.62
29733;BME280;16643;43.158;25.302;2023-05-16T10:28:47;97555.47;;;21.77;86.48
29733;BME280;16643;43.158;25.302;2023-05-16T11:07:29;97518.25;;;22.20;85.37
29733;BME280;16643;43.158;25.302;2023-05-16T11:12:35;97514.72;;;22.10;79.66
29733;BME280;16643;43.158;25.302;2023-05-16T11:15:30;97455.88;;;21.76;74.97
29733;BME280;16643;43.158;25.302;2023-05-16T11:18:13;97456.25;;;21.71;76.17
29733;BME280;16643;43.158;25.302;2023-05-16T11:20:40;97467.81;;;21.70;75.73
29733;BME280;16643;43.158;25.302;2023-05-16T11:25:57;97424.16;;;21.34;78.48
29733;BME280;16643;43.158;25.302;2023-05-16T11:28:25;97469.38;;;21.52;77.83
29733;BME280;16643;43.158;25.302;2023-05-16T11:30:53;97432.94;;;21.35;77.98
29733;BME280;16643;43.158;25.302;2023-05-16T11:33:21;97407.19;;;21.16;76.76
29733;BME280;16643;43.158;25.302;2023-05-16T11:36:19;97414.38;;;21.25;78.17
29733;BME280;16643;43.158;25.302;2023-05-16T11:38:46;97441.28;;;21.30;77.43
29733;BME280;16643;43.158;25.302;2023-05-16T11:41:12;97422.47;;;21.33;75.57
29733;BME280;16643;43.158;25.302;2023-05-16T11:43:58;97417.94;;;21.45;74.79
29733;BME280;16643;43.158;25.302;2023-05-16T11:46:51;97475.69;;;21.91;74.03
29733;BME280;16643;43.158;25.302;2023-05-16T12:02:02;97381.25;;;21.92;84.14
29733;BME280;16643;43.158;25.302;2023-05-16T12:04:29;97412.00;;;22.14;74.04
29733;BME280;16643;43.158;25.302;2023-05-16T12:07:04;97413.16;;;22.21;72.60
29733;BME280;16643;43.158;25.302;2023-05-16T12:12:54;97420.16;;;22.41;73.03
29733;BME280;16643;43.158;25.302;2023-05-16T12:15:21;97410.53;;;22.40;69.55
29733;BME280;16643;43.158;25.302;2023-05-16T12:17:53;97429.53;;;22.55;69.47
29733;BME280;16643;43.158;25.302;2023-05-16T12:20:29;97429.66;;;22.53;70.66
29733;BME280;16643;43.158;25.302;2023-05-16T12:22:56;97397.53;;;22.27;71.55
29733;BME280;16643;43.158;25.302;2023-05-16T12:25:27;97422.94;;;22.39;70.77
29733;BME280;16643;43.158;25.302;2023-05-16T12:27:55;97378.72;;;22.11;69.91
29733;BME280;16643;43.158;25.302;2023-05-16T12:30:22;97435.22;;;22.40;68.06
29733;BME280;16643;43.158;25.302;2023-05-16T12:33:02;97448.31;;;22.42;66.33
29733;BME280;16643;43.158;25.302;2023-05-16T12:35:31;97404.13;;;22.33;67.27
29733;BME280;16643;43.158;25.302;2023-05-16T12:37:57;97445.13;;;22.58;66.25
29733;BME280;16643;43.158;25.302;2023-05-16T12:46:34;97419.44;;;22.39;67.47
29733;BME280;16643;43.158;25.302;2023-05-16T13:00:34;97419.06;;;22.53;72.75
29733;BME280;16643;43.158;25.302;2023-05-16T13:06:25;97441.69;;;22.67;71.88
29733;BME280;16643;43.158;25.302;2023-05-16T13:15:59;97404.66;;;22.36;76.57
29733;BME280;16643;43.158;25.302;2023-05-16T13:18:25;97444.41;;;22.46;76.40
29733;BME280;16643;43.158;25.302;2023-05-16T13:20:51;97459.38;;;22.57;77.27
29733;BME280;16643;43.158;25.302;2023-05-16T13:23:18;97429.63;;;22.34;78.31
29733;BME280;16643;43.158;25.302;2023-05-16T13:25:46;97460.88;;;22.40;80.67
29733;BME280;16643;43.158;25.302;2023-05-16T13:28:11;97430.03;;;22.29;80.07
29733;BME280;16643;43.158;25.302;2023-05-16T13:30:39;97446.19;;;22.36;81.66
29733;BME280;16643;43.158;25.302;2023-05-16T13:33:07;97465.56;;;22.27;80.36
29733;BME280;16643;43.158;25.302;2023-05-16T13:35:33;97428.91;;;22.22;81.16
29733;BME280;16643;43.158;25.302;2023-05-16T13:38:01;97471.47;;;22.40;83.86
29733;BME280;16643;43.158;25.302;2023-05-16T13:40:26;97456.38;;;22.31;84.04
29733;BME280;16643;43.158;25.302;2023-05-16T13:42:55;97473.25;;;22.30;84.16
29733;BME280;16643;43.158;25.302;2023-05-16T13:45:21;97389.25;;;22.01;84.67
29733;BME280;16643;43.158;25.302;2023-05-16T13:47:47;97429.06;;;22.30;85.29
29733;BME280;16643;43.158;25.302;2023-05-16T13:50:14;97387.91;;;22.17;85.25
29733;BME280;16643;43.158;25.302;2023-05-16T13:52:41;97394.19;;;22.25;86.46
29733;BME280;16643;43.158;25.302;2023-05-16T13:55:07;97391.13;;;22.20;88.15
29733;BME280;16643;43.158;25.302;2023-05-16T13:57:34;97421.00;;;22.41;87.80
29733;BME280;16643;43.158;25.302;2023-05-16T13:59:59;97422.66;;;22.33;88.31
29733;BME280;16643;43.158;25.302;2023-05-16T14:02:30;97428.09;;;22.41;88.35
29733;BME280;16643;43.158;25.302;2023-05-16T14:05:26;97401.69;;;22.11;87.79
29733;BME280;16643;43.158;25.302;2023-05-16T14:07:52;97450.00;;;22.43;79.69
29733;BME280;16643;43.158;25.302;2023-05-16T14:10:17;97407.72;;;22.22;79.95
29733;BME280;16643;43.158;25.302;2023-05-16T14:12:47;97424.16;;;22.26;80.18
29733;BME280;16643;43.158;25.302;2023-05-16T14:15:35;97408.97;;;22.18;80.92
29733;BME280;16643;43.158;25.302;2023-05-16T14:18:01;97413.84;;;22.23;81.18
29733;BME280;16643;43.158;25.302;2023-05-16T14:20:28;97422.22;;;22.28;81.77
29733;BME280;16643;43.158;25.302;2023-05-16T14:25:28;97451.94;;;22.41;83.97
29733;BME280;16643;43.158;25.302;2023-05-16T14:30:49;97424.44;;;22.23;83.69
29733;BME280;16643;43.158;25.302;2023-05-16T14:39:17;97428.72;;;22.14;83.98
29733;BME280;16643;43.158;25.302;2023-05-16T14:44:34;72848.34;;;-142.82;83.40
29733;BME280;16643;43.158;25.302;2023-05-16T14:53:47;97419.94;;;21.83;84.89
29733;BME280;16643;43.158;25.302;2023-05-16T14:56:13;97400.84;;;21.80;86.35
29733;BME280;16643;43.158;25.302;2023-05-16T14:58:45;97374.28;;;21.51;86.67
29733;BME280;16643;43.158;25.302;2023-05-16T15:01:10;97349.09;;;21.26;88.04
29733;BME280;16643;43.158;25.302;2023-05-16T15:03:36;97326.56;;;21.11;84.81
29733;BME280;16643;43.158;25.302;2023-05-16T15:06:02;97335.50;;;21.30;83.60
29733;BME280;16643;43.158;25.302;2023-05-16T15:08:32;97379.47;;;21.62;82.75
29733;BME280;16643;43.158;25.302;2023-05-16T15:10:59;97363.69;;;21.51;82.86
29733;BME280;16643;43.158;25.302;2023-05-16T15:13:25;97383.34;;;21.58;83.70
29733;BME280;16643;43.158;25.302;2023-05-16T15:15:51;97404.84;;;21.64;84.26
29733;BME280;16643;43.158;25.302;2023-05-16T15:18:16;97431.72;;;21.69;85.13
29733;BME280;16643;43.158;25.302;2023-05-16T15:20:42;97415.56;;;21.63;84.68
29733;BME280;16643;43.158;25.302;2023-05-16T15:23:08;97418.13;;;21.74;84.61
29733;BME280;16643;43.158;25.302;2023-05-16T15:25:33;97352.34;;;21.29;85.70
29733;BME280;16643;43.158;25.302;2023-05-16T15:27:59;97353.16;;;21.30;84.14
29733;BME280;16643;43.158;25.302;2023-05-16T15:30:25;97433.44;;;21.50;82.69
29733;BME280;16643;43.158;25.302;2023-05-16T15:35:54;97388.38;;;21.30;81.29
29733;BME280;16643;43.158;25.302;2023-05-16T15:38:20;97420.81;;;21.53;81.46
29733;BME280;16643;43.158;25.302;2023-05-16T15:40:46;72933.53;;;-142.82;81.46
29733;BME280;16643;43.158;25.302;2023-05-16T15:43:11;97418.25;;;21.42;80.02
29733;BME280;16643;43.158;25.302;2023-05-16T15:45:37;97395.47;;;21.30;78.44
29733;BME280;16643;43.158;25.302;2023-05-16T15:48:03;97402.44;;;21.31;77.67
29733;BME280;16643;43.158;25.302;2023-05-16T15:50:28;97408.81;;;21.28;77.60
29733;BME280;16643;43.158;25.302;2023-05-16T15:52:54;97387.38;;;21.11;77.66
29733;BME280;16643;43.158;25.302;2023-05-16T15:55:22;97405.81;;;21.33;77.15
29733;BME280;16643;43.158;25.302;2023-05-16T15:57:48;97417.00;;;21.25;77.25
29733;BME280;16643;43.158;25.302;2023-05-16T16:00:14;97451.97;;;21.50;77.45
29733;BME280;16643;43.158;25.302;2023-05-16T16:02:40;97393.38;;;21.13;76.30
29733;BME280;16643;43.158;25.302;2023-05-16T16:05:09;97426.25;;;21.31;75.28
29733;BME280;16643;43.158;25.302;2023-05-16T16:07:34;97435.53;;;21.25;73.22
29733;BME280;16643;43.158;25.302;2023-05-16T16:10:00;97441.50;;;21.48;72.88
29733;BME280;16643;43.158;25.302;2023-05-16T16:12:28;97441.50;;;-142.82;72.88
29733;BME280;16643;43.158;25.302;2023-05-16T16:14:54;97390.31;;;21.28;71.99
29733;BME280;16643;43.158;25.302;2023-05-16T16:17:19;97402.69;;;21.28;71.22
29733;BME280;16643;43.158;25.302;2023-05-16T16:19:45;97425.88;;;21.45;71.44
29733;BME280;16643;43.158;25.302;2023-05-16T16:22:11;97412.09;;;21.42;71.78
29733;BME280;16643;43.158;25.302;2023-05-16T16:24:37;97382.94;;;21.11;71.32
29733;BME280;16643;43.158;25.302;2023-05-16T16:27:03;97445.97;;;21.48;71.08
29733;BME280;16643;43.158;25.302;2023-05-16T16:29:28;97369.97;;;21.19;69.88
29733;BME280;16643;43.158;25.302;2023-05-16T16:31:54;97380.00;;;21.25;70.37
29733;BME280;16643;43.158;25.302;2023-05-16T16:34:20;97384.59;;;21.12;70.96
29733;BME280;16643;43.158;25.302;2023-05-16T16:36:46;97391.09;;;21.19;70.17
29733;BME280;16643;43.158;25.302;2023-05-16T16:39:12;97347.53;;;21.02;70.88
29733;BME280;16643;43.158;25.302;2023-05-16T16:41:37;97392.13;;;21.28;71.06
29733;BME280;16643;43.158;25.302;2023-05-16T16:44:03;97407.28;;;21.26;71.78
29733;BME280;16643;43.158;25.302;2023-05-16T16:46:29;97399.25;;;21.16;71.28
29733;BME280;16643;43.158;25.302;2023-05-16T16:48:55;97411.88;;;21.13;72.08
29733;BME280;16643;43.158;25.302;2023-05-16T16:51:20;97410.63;;;21.28;72.89
29733;BME280;16643;43.158;25.302;2023-05-16T16:53:46;97375.66;;;21.03;74.23
29733;BME280;16643;43.158;25.302;2023-05-16T16:56:12;97389.53;;;21.17;74.66
29733;BME280;16643;43.158;25.302;2023-05-16T16:58:39;97401.56;;;21.21;75.41
29733;BME280;16643;43.158;25.302;2023-05-16T17:01:04;97345.38;;;20.87;76.07
29733;BME280;16643;43.158;25.302;2023-05-16T17:03:31;97387.31;;;21.01;76.94
29733;BME280;16643;43.158;25.302;2023-05-16T17:05:57;97401.00;;;21.06;77.76
29733;BME280;16643;43.158;25.302;2023-05-16T17:08:24;97362.06;;;20.87;78.84
29733;BME280;16643;43.158;25.302;2023-05-16T17:10:51;97335.38;;;20.70;79.49
29733;BME280;16643;43.158;25.302;2023-05-16T17:13:17;97407.84;;;21.09;80.66
29733;BME280;16643;43.158;25.302;2023-05-16T17:15:43;97407.84;;;21.09;80.32
29733;BME280;16643;43.158;25.302;2023-05-16T17:18:09;97401.59;;;20.78;80.98
29733;BME280;16643;43.158;25.302;2023-05-16T17:20:35;97394.41;;;20.80;81.29
29733;BME280;16643;43.158;25.302;2023-05-16T17:23:04;97399.56;;;20.49;84.30
29733;BME280;16643;43.158;25.302;2023-05-16T17:25:30;97390.94;;;20.47;84.63
29733;BME280;16643;43.158;25.302;2023-05-16T17:27:58;97402.09;;;20.51;84.93
29733;BME280;16643;43.158;25.302;2023-05-16T17:30:25;97440.88;;;20.50;84.93
29733;BME280;16643;43.158;25.302;2023-05-16T17:32:53;97387.38;;;20.37;85.09
29733;BME280;16643;43.158;25.302;2023-05-16T17:35:19;97435.63;;;20.39;85.60
29733;BME280;16643;43.158;25.302;2023-05-16T17:37:45;97425.91;;;20.40;86.22
29733;BME280;16643;43.158;25.302;2023-05-16T17:40:12;97455.50;;;20.43;86.30
29733;BME280;16643;43.158;25.302;2023-05-16T17:42:41;97418.56;;;20.21;85.82
29733;BME280;16643;43.158;25.302;2023-05-16T17:45:07;97432.13;;;20.39;86.43
29733;BME280;16643;43.158;25.302;2023-05-16T17:47:33;97443.66;;;20.38;85.69
29733;BME280;16643;43.158;25.302;2023-05-16T17:49:58;97445.09;;;20.30;85.15
29733;BME280;16643;43.158;25.302;2023-05-16T17:52:25;97435.50;;;20.29;85.65
29733;BME280;16643;43.158;25.302;2023-05-16T17:54:50;97408.50;;;20.26;85.98
29733;BME280;16643;43.158;25.302;2023-05-16T17:57:17;97452.16;;;20.52;86.31
29733;BME280;16643;43.158;25.302;2023-05-16T17:59:43;97432.47;;;20.34;86.22
29733;BME280;16643;43.158;25.302;2023-05-16T18:02:08;97419.41;;;20.21;86.10
29733;BME280;16643;43.158;25.302;2023-05-16T18:04:34;97416.91;;;20.20;86.19